sensor_id;sensor_type;location;lat;lon;timestamp;P1;durP1;ratioP1;P2;durP2;ratioP2
54557;SDS011;40452;50.080;20.040;2023-07-20T01:59:04;7.65;;;3.40;;
54557;SDS011;40452;50.080;20.040;2023-07-20T02:01:30;5.32;;;3.17;;
54557;SDS011;40452;50.080;20.040;2023-07-20T02:03:56;6.75;;;3.58;;
54557;SDS011;40452;50.080;20.040;2023-07-20T02:06:21;5.60;;;3.15;;
54557;SDS011;40452;50.080;20.040;2023-07-20T02:08:47;8.20;;;3.35;;
54557;SDS011;40452;50.080;20.040;2023-07-20T02:11:12;9.23;;;3.63;;
54557;SDS011;40452;50.080;20.040;2023-07-20T02:13:38;5.25;;;3.00;;
54557;SDS011;40452;50.080;20.040;2023-07-20T02:16:04;5.28;;;3.08;;
54557;SDS011;40452;50.080;20.040;2023-07-20T02:18:30;5.22;;;2.97;;
54557;SDS011;40452;50.080;20.040;2023-07-20T02:20:55;6.07;;;3.28;;
54557;SDS011;40452;50.080;20.040;2023-07-20T02:23:21;8.40;;;3.30;;
54557;SDS011;40452;50.080;20.040;2023-07-20T02:25:47;8.38;;;3.38;;
54557;SDS011;40452;50.080;20.040;2023-07-20T02:28:15;5.53;;;3.08;;
54557;SDS011;40452;50.080;20.040;2023-07-20T02:30:41;5.05;;;3.20;;
54557;SDS011;40452;50.080;20.040;2023-07-20T02:33:06;5.82;;;3.08;;
54557;SDS011;40452;50.080;20.040;2023-07-20T02:35:32;9.43;;;3.20;;
54557;SDS011;40452;50.080;20.040;2023-07-20T02:37:58;6.60;;;2.83;;
54557;SDS011;40452;50.080;20.040;2023-07-20T02:40:23;5.93;;;2.97;;
54557;SDS011;40452;50.080;20.040;2023-07-20T02:42:49;7.72;;;3.30;;
54557;SDS011;40452;50.080;20.040;2023-07-20T02:45:14;4.20;;;3.00;;
54557;SDS011;40452;50.080;20.040;2023-07-20T02:47:41;5.10;;;3.42;;
54557;SDS011;40452;50.080;20.040;2023-07-20T02:50:07;6.95;;;3.10;;
54557;SDS011;40452;50.080;20.040;2023-07-20T02:52:33;6.93;;;3.10;;
54557;SDS011;40452;50.080;20.040;2023-07-20T02:54:59;6.10;;;2.92;;
54557;SDS011;40452;50.080;20.040;2023-07-20T02:57:25;12.18;;;3.35;;
54557;SDS011;40452;50.080;20.040;2023-07-20T02:59:50;5.18;;;2.47;;
54557;SDS011;40452;50.080;20.040;2023-07-20T03:02:16;5.10;;;2.80;;
54557;SDS011;40452;50.080;20.040;2023-07-20T03:04:41;6.97;;;3.10;;
54557;SDS011;40452;50.080;20.040;2023-07-20T03:07:07;3.85;;;2.90;;
54557;SDS011;40452;50.080;20.040;2023-07-20T03:09:32;4.85;;;2.78;;
54557;SDS011;40452;50.080;20.040;2023-07-20T03:11:58;5.50;;;2.58;;
54557;SDS011;40452;50.080;20.040;2023-07-20T03:14:24;7.93;;;2.90;;
54557;SDS011;40452;50.080;20.040;2023-07-20T03:16:51;7.88;;;3.10;;
54557;SDS011;40452;50.080;20.040;2023-07-20T03:19:16;6.43;;;2.92;;
54557;SDS011;40452;50.080;20.040;2023-07-20T03:21:42;8.15;;;3.08;;
54557;SDS011;40452;50.080;20.040;2023-07-20T03:24:08;10.02;;;3.28;;
54557;SDS011;40452;50.080;20.040;2023-07-20T03:26:34;7.00;;;3.00;;
54557;SDS011;40452;50.080;20.040;2023-07-20T03:29:01;7.97;;;3.15;;
54557;SDS011;40452;50.080;20.040;2023-07-20T03:31:26;5.78;;;2.72;;
54557;SDS011;40452;50.080;20.040;2023-07-20T03:33:52;5.65;;;3.20;;
54557;SDS011;40452;50.080;20.040;2023-07-20T03:36:18;5.80;;;3.10;;
54557;SDS011;40452;50.080;20.040;2023-07-20T03:38:43;6.20;;;3.28;;
54557;SDS011;40452;50.080;20.040;2023-07-20T03:41:09;5.63;;;3.45;;
54557;SDS011;40452;50.080;20.040;2023-07-20T03:43:36;4.30;;;2.80;;
54557;SDS011;40452;50.080;20.040;2023-07-20T03:46:02;6.78;;;3.70;;
54557;SDS011;40452;50.080;20.040;2023-07-20T03:48:31;6.78;;;2.75;;
54557;SDS011;40452;50.080;20.040;2023-07-20T03:50:57;8.52;;;3.10;;
54557;SDS011;40452;50.080;20.040;2023-07-20T03:53:23;7.13;;;3.78;;
54557;SDS011;40452;50.080;20.040;2023-07-20T03:55:50;7.50;;;3.00;;
54557;SDS011;40452;50.080;20.040;2023-07-20T03:58:16;5.53;;;3.10;;
54557;SDS011;40452;50.080;20.040;2023-07-20T04:00:46;6.63;;;3.38;;
54557;SDS011;40452;50.080;20.040;2023-07-20T04:03:16;11.02;;;3.35;;
54557;SDS011;40452;50.080;20.040;2023-07-20T04:05:49;8.70;;;3.60;;
54557;SDS011;40452;50.080;20.040;2023-07-20T04:08:14;5.82;;;3.22;;
54557;SDS011;40452;50.080;20.040;2023-07-20T04:10:43;7.30;;;3.30;;
54557;SDS011;40452;50.080;20.040;2023-07-20T04:13:09;5.75;;;3.30;;
54557;SDS011;40452;50.080;20.040;2023-07-20T04:15:34;8.68;;;3.58;;
54557;SDS011;40452;50.080;20.040;2023-07-20T04:18:00;6.82;;;3.33;;
54557;SDS011;40452;50.080;20.040;2023-07-20T04:20:26;8.55;;;3.47;;
54557;SDS011;40452;50.080;20.040;2023-07-20T04:22:51;5.97;;;3.40;;
54557;SDS011;40452;50.080;20.040;2023-07-20T04:25:17;6.68;;;3.05;;
54557;SDS011;40452;50.080;20.040;2023-07-20T04:27:43;10.40;;;3.50;;
54557;SDS011;40452;50.080;20.040;2023-07-20T04:30:09;11.02;;;3.42;;
54557;SDS011;40452;50.080;20.040;2023-07-20T04:32:36;6.50;;;3.38;;
54557;SDS011;40452;50.080;20.040;2023-07-20T04:35:06;6.60;;;3.17;;
54557;SDS011;40452;50.080;20.040;2023-07-20T04:37:34;5.57;;;3.03;;
54557;SDS011;40452;50.080;20.040;2023-07-20T04:40:00;5.82;;;2.83;;
54557;SDS011;40452;50.080;20.040;2023-07-20T04:42:26;5.80;;;3.13;;
54557;SDS011;40452;50.080;20.040;2023-07-20T04:44:51;7.38;;;3.60;;
54557;SDS011;40452;50.080;20.040;2023-07-20T04:47:17;6.68;;;3.30;;
54557;SDS011;40452;50.080;20.040;2023-07-20T04:49:43;6.28;;;3.28;;
54557;SDS011;40452;50.080;20.040;2023-07-20T04:52:08;7.03;;;2.88;;
54557;SDS011;40452;50.080;20.040;2023-07-20T04:54:34;4.25;;;2.90;;
54557;SDS011;40452;50.080;20.040;2023-07-20T04:56:59;6.07;;;3.30;;
54557;SDS011;40452;50.080;20.040;2023-07-20T04:59:25;7.00;;;2.85;;
54557;SDS011;40452;50.080;20.040;2023-07-20T05:01:51;6.30;;;3.10;;
54557;SDS011;40452;50.080;20.040;2023-07-20T05:04:16;8.25;;;3.00;;
54557;SDS011;40452;50.080;20.040;2023-07-20T05:06:42;5.60;;;3.00;;
54557;SDS011;40452;50.080;20.040;2023-07-20T05:09:07;6.93;;;3.10;;
54557;SDS011;40452;50.080;20.040;2023-07-20T05:11:33;4.05;;;2.95;;
54557;SDS011;40452;50.080;20.040;2023-07-20T05:13:59;6.22;;;2.55;;
54557;SDS011;40452;50.080;20.040;2023-07-20T05:16:25;9.75;;;3.00;;
54557;SDS011;40452;50.080;20.040;2023-07-20T05:18:51;7.35;;;3.10;;
54557;SDS011;40452;50.080;20.040;2023-07-20T05:21:16;6.10;;;3.00;;
54557;SDS011;40452;50.080;20.040;2023-07-20T05:23:42;7.43;;;3.20;;
54557;SDS011;40452;50.080;20.040;2023-07-20T05:26:08;6.35;;;2.72;;
54557;SDS011;40452;50.080;20.040;2023-07-20T05:28:34;6.93;;;2.80;;
54557;SDS011;40452;50.080;20.040;2023-07-20T05:31:02;6.97;;;3.03;;
54557;SDS011;40452;50.080;20.040;2023-07-20T05:33:28;5.10;;;3.10;;
54557;SDS011;40452;50.080;20.040;2023-07-20T05:35:53;7.43;;;2.65;;
54557;SDS011;40452;50.080;20.040;2023-07-20T05:38:19;5.30;;;2.67;;
54557;SDS011;40452;50.080;20.040;2023-07-20T05:40:45;3.83;;;2.58;;
54557;SDS011;40452;50.080;20.040;2023-07-20T05:43:11;6.28;;;2.67;;
54557;SDS011;40452;50.080;20.040;2023-07-20T05:45:37;5.28;;;3.00;;
54557;SDS011;40452;50.080;20.040;2023-07-20T05:48:03;6.47;;;2.78;;
54557;SDS011;40452;50.080;20.040;2023-07-20T05:50:29;7.07;;;3.03;;
54557;SDS011;40452;50.080;20.040;2023-07-20T05:52:54;7.18;;;2.88;;
54557;SDS011;40452;50.080;20.040;2023-07-20T05:55:20;4.70;;;2.55;;
54557;SDS011;40452;50.080;20.040;2023-07-20T05:57:46;6.63;;;2.63;;
54557;SDS011;40452;50.080;20.040;2023-07-20T06:00:13;3.08;;;2.38;;
54557;SDS011;40452;50.080;20.040;2023-07-20T06:02:39;6.40;;;2.90;;
54557;SDS011;40452;50.080;20.040;2023-07-20T06:05:05;4.55;;;2.40;;
54557;SDS011;40452;50.080;20.040;2023-07-20T06:07:34;6.40;;;2.97;;
54557;SDS011;40452;50.080;20.040;2023-07-20T06:10:01;3.58;;;2.05;;
54557;SDS011;40452;50.080;20.040;2023-07-20T06:12:27;8.55;;;2.13;;
54557;SDS011;40452;50.080;20.040;2023-07-20T06:14:53;3.17;;;2.15;;
54557;SDS011;40452;50.080;20.040;2023-07-20T06:17:18;3.40;;;2.10;;
54557;SDS011;40452;50.080;20.040;2023-07-20T06:19:44;3.92;;;2.17;;
54557;SDS011;40452;50.080;20.040;2023-07-20T06:22:09;5.78;;;2.20;;
54557;SDS011;40452;50.080;20.040;2023-07-20T06:24:35;4.70;;;2.30;;
54557;SDS011;40452;50.080;20.040;2023-07-20T06:27:00;3.35;;;2.10;;
54557;SDS011;40452;50.080;20.040;2023-07-20T06:29:26;5.03;;;2.20;;
54557;SDS011;40452;50.080;20.040;2023-07-20T06:31:51;5.97;;;2.35;;
54557;SDS011;40452;50.080;20.040;2023-07-20T06:34:17;4.15;;;2.13;;
54557;SDS011;40452;50.080;20.040;2023-07-20T06:36:43;4.50;;;2.40;;
54557;SDS011;40452;50.080;20.040;2023-07-20T06:39:08;3.45;;;2.00;;
54557;SDS011;40452;50.080;20.040;2023-07-20T06:41:34;4.20;;;2.05;;
54557;SDS011;40452;50.080;20.040;2023-07-20T06:43:59;4.80;;;1.92;;
54557;SDS011;40452;50.080;20.040;2023-07-20T06:46:25;4.70;;;1.95;;
54557;SDS011;40452;50.080;20.040;2023-07-20T06:48:51;4.88;;;2.10;;
54557;SDS011;40452;50.080;20.040;2023-07-20T06:51:16;6.05;;;1.95;;
54557;SDS011;40452;50.080;20.040;2023-07-20T06:53:42;3.25;;;1.90;;
54557;SDS011;40452;50.080;20.040;2023-07-20T06:56:08;3.60;;;2.00;;
54557;SDS011;40452;50.080;20.040;2023-07-20T06:58:34;5.60;;;2.00;;
54557;SDS011;40452;50.080;20.040;2023-07-20T07:01:04;5.47;;;2.30;;
54557;SDS011;40452;50.080;20.040;2023-07-20T07:03:33;4.93;;;2.13;;
54557;SDS011;40452;50.080;20.040;2023-07-20T07:05:59;4.55;;;2.03;;
54557;SDS011;40452;50.080;20.040;2023-07-20T07:08:24;3.83;;;2.13;;
54557;SDS011;40452;50.080;20.040;2023-07-20T07:10:50;3.60;;;1.73;;
54557;SDS011;40452;50.080;20.040;2023-07-20T07:13:17;4.32;;;2.08;;
54557;SDS011;40452;50.080;20.040;2023-07-20T07:15:42;4.78;;;2.25;;
54557;SDS011;40452;50.080;20.040;2023-07-20T07:18:08;3.85;;;2.00;;
54557;SDS011;40452;50.080;20.040;2023-07-20T07:20:34;3.35;;;2.10;;
54557;SDS011;40452;50.080;20.040;2023-07-20T07:22:59;4.20;;;2.25;;
54557;SDS011;40452;50.080;20.040;2023-07-20T07:25:25;3.58;;;2.13;;
54557;SDS011;40452;50.080;20.040;2023-07-20T12:31:02;6.90;;;3.20;;
54557;SDS011;40452;50.080;20.040;2023-07-20T12:33:28;8.63;;;3.50;;
54557;SDS011;40452;50.080;20.040;2023-07-20T12:35:54;3.70;;;2.70;;
54557;SDS011;40452;50.080;20.040;2023-07-20T12:38:24;4.93;;;2.90;;
54557;SDS011;40452;50.080;20.040;2023-07-20T12:40:50;11.68;;;3.20;;
54557;SDS011;40452;50.080;20.040;2023-07-20T12:43:16;4.07;;;3.00;;
54557;SDS011;40452;50.080;20.040;2023-07-20T12:45:42;6.18;;;3.20;;
54557;SDS011;40452;50.080;20.040;2023-07-20T12:48:08;4.80;;;3.20;;
54557;SDS011;40452;50.080;20.040;2023-07-20T12:50:34;5.57;;;2.92;;
54557;SDS011;40452;50.080;20.040;2023-07-20T12:52:59;4.65;;;3.20;;
54557;SDS011;40452;50.080;20.040;2023-07-20T12:55:25;3.92;;;2.70;;
54557;SDS011;40452;50.080;20.040;2023-07-20T12:57:50;5.85;;;2.50;;
54557;SDS011;40452;50.080;20.040;2023-07-20T13:00:16;4.20;;;2.58;;
54557;SDS011;40452;50.080;20.040;2023-07-20T13:02:42;4.45;;;2.67;;
54557;SDS011;40452;50.080;20.040;2023-07-20T13:05:08;4.00;;;2.70;;
54557;SDS011;40452;50.080;20.040;2023-07-20T13:07:35;5.55;;;2.85;;
54557;SDS011;40452;50.080;20.040;2023-07-20T13:10:02;3.03;;;2.63;;
54557;SDS011;40452;50.080;20.040;2023-07-20T13:12:29;3.20;;;2.42;;
54557;SDS011;40452;50.080;20.040;2023-07-20T13:14:56;4.05;;;2.88;;
54557;SDS011;40452;50.080;20.040;2023-07-20T13:17:25;3.30;;;2.40;;
54557;SDS011;40452;50.080;20.040;2023-07-20T13:19:51;4.30;;;2.35;;
54557;SDS011;40452;50.080;20.040;2023-07-20T13:22:17;3.42;;;2.10;;
54557;SDS011;40452;50.080;20.040;2023-07-20T13:24:44;3.90;;;2.25;;
54557;SDS011;40452;50.080;20.040;2023-07-20T13:27:14;3.17;;;2.00;;
54557;SDS011;40452;50.080;20.040;2023-07-20T13:29:40;3.05;;;1.85;;
54557;SDS011;40452;50.080;20.040;2023-07-20T13:32:06;4.78;;;2.22;;
54557;SDS011;40452;50.080;20.040;2023-07-20T13:34:33;4.28;;;2.20;;
54557;SDS011;40452;50.080;20.040;2023-07-20T13:36:59;6.13;;;2.40;;
54557;SDS011;40452;50.080;20.040;2023-07-20T13:39:25;3.10;;;2.15;;
54557;SDS011;40452;50.080;20.040;2023-07-20T13:41:52;5.15;;;2.10;;
54557;SDS011;40452;50.080;20.040;2023-07-20T13:44:18;3.20;;;2.20;;
54557;SDS011;40452;50.080;20.040;2023-07-20T13:46:45;3.33;;;2.50;;
54557;SDS011;40452;50.080;20.040;2023-07-20T13:49:11;3.72;;;2.10;;
54557;SDS011;40452;50.080;20.040;2023-07-20T13:51:36;5.72;;;2.40;;
54557;SDS011;40452;50.080;20.040;2023-07-20T13:54:02;5.47;;;2.30;;
54557;SDS011;40452;50.080;20.040;2023-07-20T13:56:28;3.80;;;2.10;;
54557;SDS011;40452;50.080;20.040;2023-07-20T13:58:54;3.90;;;2.40;;
54557;SDS011;40452;50.080;20.040;2023-07-20T14:01:19;12.27;;;2.13;;
54557;SDS011;40452;50.080;20.040;2023-07-20T14:03:45;4.13;;;3.22;;
54557;SDS011;40452;50.080;20.040;2023-07-20T14:06:10;3.92;;;2.60;;
54557;SDS011;40452;50.080;20.040;2023-07-20T14:08:38;6.00;;;2.33;;
54557;SDS011;40452;50.080;20.040;2023-07-20T14:11:03;3.53;;;2.47;;
54557;SDS011;40452;50.080;20.040;2023-07-20T14:13:29;5.03;;;2.35;;
54557;SDS011;40452;50.080;20.040;2023-07-20T14:15:55;2.97;;;2.15;;
54557;SDS011;40452;50.080;20.040;2023-07-20T14:18:21;4.18;;;2.30;;
54557;SDS011;40452;50.080;20.040;2023-07-20T14:20:47;3.88;;;2.45;;
54557;SDS011;40452;50.080;20.040;2023-07-20T14:23:12;3.75;;;2.20;;
54557;SDS011;40452;50.080;20.040;2023-07-20T14:25:38;4.45;;;2.20;;
54557;SDS011;40452;50.080;20.040;2023-07-20T14:28:03;3.20;;;2.15;;
54557;SDS011;40452;50.080;20.040;2023-07-20T14:30:29;4.85;;;2.17;;
54557;SDS011;40452;50.080;20.040;2023-07-20T14:32:54;4.05;;;1.70;;
54557;SDS011;40452;50.080;20.040;2023-07-20T14:35:20;2.13;;;1.77;;
54557;SDS011;40452;50.080;20.040;2023-07-20T14:37:47;2.03;;;1.60;;
54557;SDS011;40452;50.080;20.040;2023-07-20T14:40:13;15.43;;;1.80;;
54557;SDS011;40452;50.080;20.040;2023-07-20T14:42:38;4.75;;;1.55;;
54557;SDS011;40452;50.080;20.040;2023-07-20T14:45:04;6.72;;;1.45;;
54557;SDS011;40452;50.080;20.040;2023-07-20T14:47:31;3.67;;;1.50;;
54557;SDS011;40452;50.080;20.040;2023-07-20T14:50:00;6.68;;;1.40;;
54557;SDS011;40452;50.080;20.040;2023-07-20T14:52:30;2.03;;;1.10;;
54557;SDS011;40452;50.080;20.040;2023-07-20T14:54:55;6.80;;;1.40;;
54557;SDS011;40452;50.080;20.040;2023-07-20T14:57:21;4.43;;;1.42;;
54557;SDS011;40452;50.080;20.040;2023-07-20T14:59:48;6.18;;;2.10;;
54557;SDS011;40452;50.080;20.040;2023-07-20T15:02:14;5.70;;;1.48;;
54557;SDS011;40452;50.080;20.040;2023-07-20T15:04:50;3.97;;;1.30;;
54557;SDS011;40452;50.080;20.040;2023-07-20T15:07:17;5.35;;;1.48;;
54557;SDS011;40452;50.080;20.040;2023-07-20T15:09:43;2.50;;;1.42;;
54557;SDS011;40452;50.080;20.040;2023-07-20T15:12:09;4.32;;;1.52;;
54557;SDS011;40452;50.080;20.040;2023-07-20T15:14:35;2.28;;;1.20;;
54557;SDS011;40452;50.080;20.040;2023-07-20T15:17:04;2.60;;;1.48;;
54557;SDS011;40452;50.080;20.040;2023-07-20T15:19:30;3.58;;;1.45;;
54557;SDS011;40452;50.080;20.040;2023-07-20T15:21:56;2.78;;;1.40;;
54557;SDS011;40452;50.080;20.040;2023-07-20T15:24:21;6.25;;;1.20;;
54557;SDS011;40452;50.080;20.040;2023-07-20T15:26:47;3.97;;;1.35;;
54557;SDS011;40452;50.080;20.040;2023-07-20T15:29:13;3.53;;;1.60;;
54557;SDS011;40452;50.080;20.040;2023-07-20T15:31:38;3.72;;;1.40;;
54557;SDS011;40452;50.080;20.040;2023-07-20T15:34:04;2.72;;;1.60;;
54557;SDS011;40452;50.080;20.040;2023-07-20T15:36:29;3.22;;;2.08;;
54557;SDS011;40452;50.080;20.040;2023-07-20T15:38:56;2.67;;;1.60;;
54557;SDS011;40452;50.080;20.040;2023-07-20T15:41:21;2.80;;;1.75;;
54557;SDS011;40452;50.080;20.040;2023-07-20T15:43:47;2.30;;;1.45;;
54557;SDS011;40452;50.080;20.040;2023-07-20T15:48:45;3.05;;;1.50;;
54557;SDS011;40452;50.080;20.040;2023-07-20T15:51:11;2.88;;;2.30;;
54557;SDS011;40452;50.080;20.040;2023-07-20T15:53:37;3.92;;;1.58;;
54557;SDS011;40452;50.080;20.040;2023-07-20T15:56:03;3.63;;;1.63;;
54557;SDS011;40452;50.080;20.040;2023-07-20T15:58:29;4.13;;;1.90;;
54557;SDS011;40452;50.080;20.040;2023-07-20T16:00:55;5.68;;;2.03;;
54557;SDS011;40452;50.080;20.040;2023-07-20T16:03:21;2.90;;;1.80;;
54557;SDS011;40452;50.080;20.040;2023-07-20T16:05:50;4.68;;;1.95;;
54557;SDS011;40452;50.080;20.040;2023-07-20T16:08:19;5.20;;;1.58;;
54557;SDS011;40452;50.080;20.040;2023-07-20T16:10:44;4.78;;;1.90;;
54557;SDS011;40452;50.080;20.040;2023-07-20T16:13:10;3.58;;;2.10;;
54557;SDS011;40452;50.080;20.040;2023-07-20T16:15:36;4.35;;;1.90;;
54557;SDS011;40452;50.080;20.040;2023-07-20T16:18:02;3.95;;;2.10;;
54557;SDS011;40452;50.080;20.040;2023-07-20T16:20:27;4.60;;;2.05;;
54557;SDS011;40452;50.080;20.040;2023-07-20T16:22:53;3.83;;;2.20;;
54557;SDS011;40452;50.080;20.040;2023-07-20T16:25:19;8.00;;;2.20;;
54557;SDS011;40452;50.080;20.040;2023-07-20T16:27:45;6.55;;;2.83;;
54557;SDS011;40452;50.080;20.040;2023-07-20T16:30:10;4.82;;;2.40;;
54557;SDS011;40452;50.080;20.040;2023-07-20T16:32:38;5.22;;;2.28;;
54557;SDS011;40452;50.080;20.040;2023-07-20T16:35:06;5.43;;;2.30;;
54557;SDS011;40452;50.080;20.040;2023-07-20T16:37:32;5.10;;;2.17;;
54557;SDS011;40452;50.080;20.040;2023-07-20T16:39:58;2.95;;;1.75;;
54557;SDS011;40452;50.080;20.040;2023-07-20T16:42:24;4.50;;;2.17;;
54557;SDS011;40452;50.080;20.040;2023-07-20T16:44:52;3.65;;;1.75;;
54557;SDS011;40452;50.080;20.040;2023-07-20T16:47:18;5.63;;;2.08;;
54557;SDS011;40452;50.080;20.040;2023-07-20T16:49:46;4.18;;;1.80;;
54557;SDS011;40452;50.080;20.040;2023-07-20T16:52:13;6.97;;;1.80;;
54557;SDS011;40452;50.080;20.040;2023-07-20T16:54:38;3.05;;;1.73;;
54557;SDS011;40452;50.080;20.040;2023-07-20T16:57:04;2.42;;;1.70;;
54557;SDS011;40452;50.080;20.040;2023-07-20T16:59:31;3.58;;;1.73;;
54557;SDS011;40452;50.080;20.040;2023-07-20T17:01:56;4.90;;;1.70;;
54557;SDS011;40452;50.080;20.040;2023-07-20T17:04:22;6.07;;;1.80;;
54557;SDS011;40452;50.080;20.040;2023-07-20T17:06:47;3.70;;;1.88;;
54557;SDS011;40452;50.080;20.040;2023-07-20T17:09:13;2.85;;;1.90;;
54557;SDS011;40452;50.080;20.040;2023-07-20T17:11:40;4.65;;;2.90;;
54557;SDS011;40452;50.080;20.040;2023-07-20T17:14:05;5.47;;;2.20;;
54557;SDS011;40452;50.080;20.040;2023-07-20T17:16:31;7.25;;;5.43;;
54557;SDS011;40452;50.080;20.040;2023-07-20T17:18:56;4.32;;;2.55;;
54557;SDS011;40452;50.080;20.040;2023-07-20T17:21:22;6.32;;;3.53;;
54557;SDS011;40452;50.080;20.040;2023-07-20T17:23:51;5.28;;;1.90;;
54557;SDS011;40452;50.080;20.040;2023-07-20T17:26:17;2.83;;;1.77;;
54557;SDS011;40452;50.080;20.040;2023-07-20T17:28:42;5.30;;;1.80;;
54557;SDS011;40452;50.080;20.040;2023-07-20T17:31:08;3.80;;;1.52;;
54557;SDS011;40452;50.080;20.040;2023-07-20T17:33:34;3.47;;;1.70;;
54557;SDS011;40452;50.080;20.040;2023-07-20T17:35:59;3.35;;;1.98;;
54557;SDS011;40452;50.080;20.040;2023-07-20T17:38:25;4.45;;;2.70;;
54557;SDS011;40452;50.080;20.040;2023-07-20T17:40:51;3.60;;;2.47;;
54557;SDS011;40452;50.080;20.040;2023-07-20T17:43:20;3.63;;;1.90;;
54557;SDS011;40452;50.080;20.040;2023-07-20T17:45:48;5.90;;;1.75;;
54557;SDS011;40452;50.080;20.040;2023-07-20T17:48:18;3.53;;;1.50;;
54557;SDS011;40452;50.080;20.040;2023-07-20T17:50:44;4.15;;;1.75;;
54557;SDS011;40452;50.080;20.040;2023-07-20T17:53:10;2.67;;;1.70;;
54557;SDS011;40452;50.080;20.040;2023-07-20T17:55:36;3.05;;;1.42;;
54557;SDS011;40452;50.080;20.040;2023-07-20T17:58:02;2.40;;;1.52;;
54557;SDS011;40452;50.080;20.040;2023-07-20T18:00:28;3.15;;;1.50;;
54557;SDS011;40452;50.080;20.040;2023-07-20T18:02:53;2.28;;;1.50;;
54557;SDS011;40452;50.080;20.040;2023-07-20T18:05:20;3.72;;;1.88;;
54557;SDS011;40452;50.080;20.040;2023-07-20T18:07:46;2.67;;;1.60;;
54557;SDS011;40452;50.080;20.040;2023-07-20T18:10:11;3.70;;;1.73;;
54557;SDS011;40452;50.080;20.040;2023-07-20T18:12:37;2.30;;;1.50;;
54557;SDS011;40452;50.080;20.040;2023-07-20T18:15:03;2.78;;;1.63;;
54557;SDS011;40452;50.080;20.040;2023-07-20T18:17:30;3.53;;;1.65;;
54557;SDS011;40452;50.080;20.040;2023-07-20T18:19:57;2.38;;;1.77;;
54557;SDS011;40452;50.080;20.040;2023-07-20T18:22:22;2.30;;;1.50;;
54557;SDS011;40452;50.080;20.040;2023-07-20T18:24:48;3.90;;;2.00;;
54557;SDS011;40452;50.080;20.040;2023-07-20T18:27:14;3.58;;;2.20;;
54557;SDS011;40452;50.080;20.040;2023-07-20T18:29:40;3.92;;;1.60;;
54557;SDS011;40452;50.080;20.040;2023-07-20T18:32:06;4.65;;;1.73;;
54557;SDS011;40452;50.080;20.040;2023-07-20T18:34:32;3.08;;;1.70;;
54557;SDS011;40452;50.080;20.040;2023-07-20T18:36:57;2.70;;;1.70;;
54557;SDS011;40452;50.080;20.040;2023-07-20T18:39:23;4.80;;;2.13;;
54557;SDS011;40452;50.080;20.040;2023-07-20T18:41:48;2.70;;;1.88;;
54557;SDS011;40452;50.080;20.040;2023-07-20T18:44:14;3.75;;;2.15;;
54557;SDS011;40452;50.080;20.040;2023-07-20T18:46:39;4.85;;;3.05;;
54557;SDS011;40452;50.080;20.040;2023-07-20T18:49:05;5.18;;;2.15;;
54557;SDS011;40452;50.080;20.040;2023-07-20T18:51:31;15.70;;;4.40;;
54557;SDS011;40452;50.080;20.040;2023-07-20T18:53:56;10.70;;;6.72;;
54557;SDS011;40452;50.080;20.040;2023-07-20T18:56:22;13.25;;;7.70;;
54557;SDS011;40452;50.080;20.040;2023-07-20T18:58:48;8.50;;;4.47;;
54557;SDS011;40452;50.080;20.040;2023-07-20T19:01:14;5.05;;;2.85;;
54557;SDS011;40452;50.080;20.040;2023-07-20T19:03:40;5.88;;;3.60;;
54557;SDS011;40452;50.080;20.040;2023-07-20T19:06:06;8.75;;;3.20;;
54557;SDS011;40452;50.080;20.040;2023-07-20T19:08:32;8.13;;;3.63;;
54557;SDS011;40452;50.080;20.040;2023-07-20T19:10:58;9.25;;;2.88;;
54557;SDS011;40452;50.080;20.040;2023-07-20T19:13:28;6.60;;;3.25;;
54557;SDS011;40452;50.080;20.040;2023-07-20T19:15:57;3.78;;;2.58;;
54557;SDS011;40452;50.080;20.040;2023-07-20T19:18:28;6.53;;;3.63;;
54557;SDS011;40452;50.080;20.040;2023-07-20T19:20:54;6.22;;;3.47;;
54557;SDS011;40452;50.080;20.040;2023-07-20T19:23:19;11.35;;;3.75;;
54557;SDS011;40452;50.080;20.040;2023-07-20T19:25:45;8.90;;;5.32;;
54557;SDS011;40452;50.080;20.040;2023-07-20T19:28:11;7.40;;;4.60;;
54557;SDS011;40452;50.080;20.040;2023-07-20T19:30:36;6.10;;;3.35;;
54557;SDS011;40452;50.080;20.040;2023-07-20T19:33:02;7.25;;;3.20;;
54557;SDS011;40452;50.080;20.040;2023-07-20T19:35:28;10.70;;;3.70;;
54557;SDS011;40452;50.080;20.040;2023-07-20T19:38:00;7.68;;;3.90;;
54557;SDS011;40452;50.080;20.040;2023-07-20T19:40:28;7.55;;;3.65;;
54557;SDS011;40452;50.080;20.040;2023-07-20T19:42:54;7.35;;;3.25;;
54557;SDS011;40452;50.080;20.040;2023-07-20T19:45:20;10.20;;;3.42;;
54557;SDS011;40452;50.080;20.040;2023-07-20T19:47:46;5.22;;;3.10;;
54557;SDS011;40452;50.080;20.040;2023-07-20T19:50:11;5.72;;;3.25;;
54557;SDS011;40452;50.080;20.040;2023-07-20T19:52:37;6.25;;;3.15;;
54557;SDS011;40452;50.080;20.040;2023-07-20T19:55:05;4.45;;;2.90;;
54557;SDS011;40452;50.080;20.040;2023-07-20T19:57:31;4.68;;;2.80;;
54557;SDS011;40452;50.080;20.040;2023-07-20T19:59:56;6.97;;;2.83;;
54557;SDS011;40452;50.080;20.040;2023-07-20T20:02:22;7.60;;;2.80;;
54557;SDS011;40452;50.080;20.040;2023-07-20T20:04:47;4.80;;;2.65;;
54557;SDS011;40452;50.080;20.040;2023-07-20T20:07:13;6.95;;;3.60;;
54557;SDS011;40452;50.080;20.040;2023-07-20T20:09:41;6.45;;;3.88;;
54557;SDS011;40452;50.080;20.040;2023-07-20T20:12:07;5.90;;;3.60;;
54557;SDS011;40452;50.080;20.040;2023-07-20T20:14:34;6.85;;;4.00;;
54557;SDS011;40452;50.080;20.040;2023-07-20T20:16:59;8.32;;;5.10;;
54557;SDS011;40452;50.080;20.040;2023-07-20T20:19:25;7.20;;;4.40;;
54557;SDS011;40452;50.080;20.040;2023-07-20T20:21:50;8.48;;;3.97;;
54557;SDS011;40452;50.080;20.040;2023-07-20T20:24:16;6.50;;;4.25;;
54557;SDS011;40452;50.080;20.040;2023-07-20T20:26:42;6.35;;;3.58;;
54557;SDS011;40452;50.080;20.040;2023-07-20T20:29:08;5.82;;;3.22;;
54557;SDS011;40452;50.080;20.040;2023-07-20T20:31:34;6.60;;;3.35;;
54557;SDS011;40452;50.080;20.040;2023-07-20T20:33:59;7.65;;;3.20;;
54557;SDS011;40452;50.080;20.040;2023-07-20T20:36:25;4.60;;;2.92;;
54557;SDS011;40452;50.080;20.040;2023-07-20T20:38:52;6.57;;;2.60;;
54557;SDS011;40452;50.080;20.040;2023-07-20T20:41:18;4.53;;;2.75;;
54557;SDS011;40452;50.080;20.040;2023-07-20T20:43:44;3.95;;;2.42;;
54557;SDS011;40452;50.080;20.040;2023-07-20T20:46:10;5.50;;;2.47;;
54557;SDS011;40452;50.080;20.040;2023-07-20T20:48:37;4.55;;;2.50;;
54557;SDS011;40452;50.080;20.040;2023-07-20T20:51:09;4.30;;;2.60;;
54557;SDS011;40452;50.080;20.040;2023-07-20T20:53:35;3.58;;;2.50;;
54557;SDS011;40452;50.080;20.040;2023-07-20T20:56:01;7.18;;;2.70;;
54557;SDS011;40452;50.080;20.040;2023-07-20T20:58:26;5.80;;;2.72;;
54557;SDS011;40452;50.080;20.040;2023-07-20T21:00:52;7.47;;;2.83;;
54557;SDS011;40452;50.080;20.040;2023-07-20T21:03:17;5.10;;;2.53;;
54557;SDS011;40452;50.080;20.040;2023-07-20T21:05:43;5.03;;;2.60;;
54557;SDS011;40452;50.080;20.040;2023-07-20T21:08:09;5.03;;;2.40;;
54557;SDS011;40452;50.080;20.040;2023-07-20T21:10:34;5.57;;;3.10;;
54557;SDS011;40452;50.080;20.040;2023-07-20T21:13:02;4.07;;;2.55;;
54557;SDS011;40452;50.080;20.040;2023-07-20T21:15:31;6.47;;;2.83;;
54557;SDS011;40452;50.080;20.040;2023-07-20T21:17:57;3.13;;;2.55;;
54557;SDS011;40452;50.080;20.040;2023-07-20T21:20:22;8.30;;;3.10;;
54557;SDS011;40452;50.080;20.040;2023-07-20T21:22:48;5.75;;;3.25;;
54557;SDS011;40452;50.080;20.040;2023-07-20T21:25:14;9.88;;;4.25;;
54557;SDS011;40452;50.080;20.040;2023-07-20T21:27:40;7.13;;;4.35;;
54557;SDS011;40452;50.080;20.040;2023-07-20T21:30:07;5.55;;;3.55;;